sensor_id;sensor_type;location;lat;lon;timestamp;pressure;altitude;pressure_sealevel;temperature;humidity
53514;BME280;39768;54.148;12.174;2023-07-16T00:03:33;100531.09;;;21.22;84.63
53514;BME280;39768;54.148;12.174;2023-07-16T00:07:34;100538.41;;;21.32;84.08
53514;BME280;39768;54.148;12.174;2023-07-16T00:11:36;100536.53;;;21.22;85.13
53514;BME280;39768;54.148;12.174;2023-07-16T00:15:37;100537.16;;;21.25;85.21
53514;BME280;39768;54.148;12.174;2023-07-16T00:19:39;100532.59;;;21.26;85.44
53514;BME280;39768;54.148;12.174;2023-07-16T00:23:40;100531.19;;;21.43;84.04
53514;BME280;39768;54.148;12.174;2023-07-16T00:27:42;100545.09;;;21.40;85.70
53514;BME280;39768;54.148;12.174;2023-07-16T00:31:43;100534.69;;;21.33;85.42
53514;BME280;39768;54.148;12.174;2023-07-16T00:35:48;100535.16;;;21.27;86.18
53514;BME280;39768;54.148;12.174;2023-07-16T00:39:50;100537.66;;;21.19;86.84
53514;BME280;39768;54.148;12.174;2023-07-16T00:43:52;100582.38;;;20.59;88.33
53514;BME280;39768;54.148;12.174;2023-07-16T00:47:55;100604.84;;;19.91;85.74
53514;BME280;39768;54.148;12.174;2023-07-16T00:51:58;100617.28;;;19.46;91.29
53514;BME280;39768;54.148;12.174;2023-07-16T00:56:00;100624.34;;;19.11;91.85
53514;BME280;39768;54.148;12.174;2023-07-16T01:00:02;100619.22;;;19.19;90.95
53514;BME280;39768;54.148;12.174;2023-07-16T01:04:05;100619.47;;;19.16;90.35
53514;BME280;39768;54.148;12.174;2023-07-16T01:08:09;100624.13;;;19.14;91.71
53514;BME280;39768;54.148;12.174;2023-07-16T01:12:10;100634.75;;;18.91;90.96
53514;BME280;39768;54.148;12.174;2023-07-16T01:16:23;100634.88;;;18.90;93.28
53514;BME280;39768;54.148;12.174;2023-07-16T01:20:25;100648.00;;;18.71;94.53
53514;BME280;39768;54.148;12.174;2023-07-16T01:33:08;100658.50;;;18.75;91.24
53514;BME280;39768;54.148;12.174;2023-07-16T01:37:11;100666.22;;;18.69;90.37
53514;BME280;39768;54.148;12.174;2023-07-16T01:41:13;100647.44;;;18.91;88.24
53514;BME280;39768;54.148;12.174;2023-07-16T01:45:15;100639.97;;;18.95;87.36
53514;BME280;39768;54.148;12.174;2023-07-16T01:49:16;100660.34;;;18.75;89.19
53514;BME280;39768;54.148;12.174;2023-07-16T01:53:18;100682.59;;;18.67;91.43
53514;BME280;39768;54.148;12.174;2023-07-16T01:57:20;100700.59;;;18.81;90.52
53514;BME280;39768;54.148;12.174;2023-07-16T02:01:21;100705.91;;;18.43;91.12
53514;BME280;39768;54.148;12.174;2023-07-16T02:05:23;100722.38;;;18.40;91.62
53514;BME280;39768;54.148;12.174;2023-07-16T02:09:25;100713.66;;;18.35;91.79
53514;BME280;39768;54.148;12.174;2023-07-16T02:13:27;100725.34;;;18.23;88.72
53514;BME280;39768;54.148;12.174;2023-07-16T02:17:28;100708.47;;;18.05;89.35
53514;BME280;39768;54.148;12.174;2023-07-16T02:21:30;100704.81;;;18.45;85.72
53514;BME280;39768;54.148;12.174;2023-07-16T02:25:32;100703.13;;;18.30;87.32
53514;BME280;39768;54.148;12.174;2023-07-16T02:29:33;100708.41;;;18.19;92.67
53514;BME280;39768;54.148;12.174;2023-07-16T02:33:35;100730.44;;;18.27;91.60
53514;BME280;39768;54.148;12.174;2023-07-16T02:37:36;100741.78;;;18.19;91.96
53514;BME280;39768;54.148;12.174;2023-07-16T02:41:38;100760.34;;;18.26;91.71
53514;BME280;39768;54.148;12.174;2023-07-16T02:45:40;100767.94;;;18.33;92.66
53514;BME280;39768;54.148;12.174;2023-07-16T02:49:42;100773.72;;;18.14;90.22
53514;BME280;39768;54.148;12.174;2023-07-16T02:53:43;100757.88;;;18.35;90.39
53514;BME280;39768;54.148;12.174;2023-07-16T02:57:45;100764.84;;;18.12;92.88
53514;BME280;39768;54.148;12.174;2023-07-16T03:01:46;100768.63;;;18.37;94.46
53514;BME280;39768;54.148;12.174;2023-07-16T03:05:48;100771.22;;;18.52;89.92
53514;BME280;39768;54.148;12.174;2023-07-16T03:09:51;100794.69;;;18.25;91.13
53514;BME280;39768;54.148;12.174;2023-07-16T03:13:53;100784.59;;;18.41;93.30
53514;BME280;39768;54.148;12.174;2023-07-16T03:17:55;100775.06;;;18.48;93.38
53514;BME280;39768;54.148;12.174;2023-07-16T03:21:57;100782.50;;;18.18;90.97
53514;BME280;39768;54.148;12.174;2023-07-16T03:25:58;100755.38;;;17.91;86.33
53514;BME280;39768;54.148;12.174;2023-07-16T03:30:02;100730.91;;;18.07;82.28
53514;BME280;39768;54.148;12.174;2023-07-16T03:34:05;100714.59;;;17.94;81.97
53514;BME280;39768;54.148;12.174;2023-07-16T03:38:07;100729.06;;;18.07;83.09
53514;BME280;39768;54.148;12.174;2023-07-16T03:42:08;100703.84;;;17.93;85.03
53514;BME280;39768;54.148;12.174;2023-07-16T03:46:10;100759.97;;;17.76;84.98
53514;BME280;39768;54.148;12.174;2023-07-16T03:50:12;100775.22;;;17.77;83.93
53514;BME280;39768;54.148;12.174;2023-07-16T03:54:13;100790.66;;;18.04;85.40
53514;BME280;39768;54.148;12.174;2023-07-16T03:58:15;100764.19;;;17.95;89.18
53514;BME280;39768;54.148;12.174;2023-07-16T04:02:16;100804.59;;;17.69;91.77
53514;BME280;39768;54.148;12.174;2023-07-16T04:06:18;100814.81;;;17.50;93.91
53514;BME280;39768;54.148;12.174;2023-07-16T04:10:19;100807.31;;;17.69;91.81
53514;BME280;39768;54.148;12.174;2023-07-16T04:14:21;100810.19;;;17.38;95.32
53514;BME280;39768;54.148;12.174;2023-07-16T04:18:25;100801.09;;;17.53;94.81
53514;BME280;39768;54.148;12.174;2023-07-16T04:22:27;100750.25;;;17.58;96.29
53514;BME280;39768;54.148;12.174;2023-07-16T04:26:29;100782.81;;;17.71;93.20
53514;BME280;39768;54.148;12.174;2023-07-16T04:30:30;100787.94;;;17.61;96.46
53514;BME280;39768;54.148;12.174;2023-07-16T04:34:32;100792.22;;;17.65;95.65
53514;BME280;39768;54.148;12.174;2023-07-16T04:38:33;100801.03;;;17.69;94.65
53514;BME280;39768;54.148;12.174;2023-07-16T04:42:35;100805.25;;;17.59;93.03
53514;BME280;39768;54.148;12.174;2023-07-16T04:46:36;100820.84;;;17.55;92.29
53514;BME280;39768;54.148;12.174;2023-07-16T04:50:38;100812.47;;;17.44;92.01
53514;BME280;39768;54.148;12.174;2023-07-16T04:54:40;100804.59;;;17.55;90.93
53514;BME280;39768;54.148;12.174;2023-07-16T04:58:42;100822.25;;;17.46;92.01
53514;BME280;39768;54.148;12.174;2023-07-16T05:02:43;100816.16;;;17.43;92.21
53514;BME280;39768;54.148;12.174;2023-07-16T05:06:45;100834.72;;;17.63;89.82
53514;BME280;39768;54.148;12.174;2023-07-16T05:10:47;100853.53;;;17.36;91.56
53514;BME280;39768;54.148;12.174;2023-07-16T05:14:48;100853.69;;;17.63;89.02
53514;BME280;39768;54.148;12.174;2023-07-16T05:18:50;100860.59;;;17.83;88.48
53514;BME280;39768;54.148;12.174;2023-07-16T05:22:51;100874.13;;;17.97;88.53
53514;BME280;39768;54.148;12.174;2023-07-16T05:26:53;100874.13;;;17.83;89.87
53514;BME280;39768;54.148;12.174;2023-07-16T05:31:00;100883.91;;;18.14;86.38
53514;BME280;39768;54.148;12.174;2023-07-16T05:35:01;100880.25;;;17.71;87.65
53514;BME280;39768;54.148;12.174;2023-07-16T05:39:04;100885.53;;;18.02;86.46
53514;BME280;39768;54.148;12.174;2023-07-16T05:43:05;100896.66;;;17.98;83.23
53514;BME280;39768;54.148;12.174;2023-07-16T05:47:07;100891.16;;;18.28;80.20
53514;BME280;39768;54.148;12.174;2023-07-16T05:51:09;100902.63;;;18.45;80.59
53514;BME280;39768;54.148;12.174;2023-07-16T05:55:11;100904.19;;;18.35;81.93
53514;BME280;39768;54.148;12.174;2023-07-16T05:59:12;100902.09;;;18.81;78.97
53514;BME280;39768;54.148;12.174;2023-07-16T06:03:13;100913.13;;;18.78;78.14
53514;BME280;39768;54.148;12.174;2023-07-16T06:07:18;100908.03;;;18.60;78.86
53514;BME280;39768;54.148;12.174;2023-07-16T06:11:20;100902.97;;;18.82;77.71
53514;BME280;39768;54.148;12.174;2023-07-16T06:15:22;100903.63;;;18.85;76.45
53514;BME280;39768;54.148;12.174;2023-07-16T06:19:23;100914.22;;;18.47;76.56
53514;BME280;39768;54.148;12.174;2023-07-16T06:23:25;100912.00;;;19.22;71.90
53514;BME280;39768;54.148;12.174;2023-07-16T06:27:26;100910.84;;;19.91;65.52
53514;BME280;39768;54.148;12.174;2023-07-16T06:31:28;100920.63;;;19.93;63.60
53514;BME280;39768;54.148;12.174;2023-07-16T06:35:30;100923.41;;;20.55;60.03
53514;BME280;39768;54.148;12.174;2023-07-16T06:39:31;100929.47;;;20.72;57.54
53514;BME280;39768;54.148;12.174;2023-07-16T06:43:33;100926.38;;;20.52;56.57
53514;BME280;39768;54.148;12.174;2023-07-16T06:47:34;100935.63;;;20.62;53.92
53514;BME280;39768;54.148;12.174;2023-07-16T06:51:36;100937.00;;;20.68;53.42
53514;BME280;39768;54.148;12.174;2023-07-16T06:55:38;100943.69;;;20.88;55.79
53514;BME280;39768;54.148;12.174;2023-07-16T06:59:39;100940.47;;;21.30;54.12
53514;BME280;39768;54.148;12.174;2023-07-16T07:03:41;100943.31;;;21.05;52.31
53514;BME280;39768;54.148;12.174;2023-07-16T07:07:42;100943.41;;;21.04;52.94
53514;BME280;39768;54.148;12.174;2023-07-16T07:11:46;100936.81;;;21.19;53.22
53514;BME280;39768;54.148;12.174;2023-07-16T07:15:47;100945.16;;;21.52;54.10
53514;BME280;39768;54.148;12.174;2023-07-16T07:19:49;100947.69;;;21.19;50.21
53514;BME280;39768;54.148;12.174;2023-07-16T07:23:51;100946.22;;;21.39;49.89
53514;BME280;39768;54.148;12.174;2023-07-16T07:27:52;100955.56;;;21.58;48.49
53514;BME280;39768;54.148;12.174;2023-07-16T07:31:54;100952.41;;;21.76;49.17
53514;BME280;39768;54.148;12.174;2023-07-16T07:35:56;100955.84;;;22.01;44.79
53514;BME280;39768;54.148;12.174;2023-07-16T07:39:58;100952.28;;;22.12;45.34
53514;BME280;39768;54.148;12.174;2023-07-16T07:44:00;100950.22;;;21.92;44.07
53514;BME280;39768;54.148;12.174;2023-07-16T07:48:02;100965.31;;;21.85;44.42
53514;BME280;39768;54.148;12.174;2023-07-16T07:52:04;100960.97;;;22.51;44.51
53514;BME280;39768;54.148;12.174;2023-07-16T07:56:06;100962.56;;;22.31;44.15
53514;BME280;39768;54.148;12.174;2023-07-16T08:00:08;100954.88;;;22.14;44.68
53514;BME280;39768;54.148;12.174;2023-07-16T08:04:15;100962.56;;;22.31;45.22
53514;BME280;39768;54.148;12.174;2023-07-16T08:08:17;100963.41;;;22.09;45.67
53514;BME280;39768;54.148;12.174;2023-07-16T08:12:18;100972.81;;;22.16;45.86
53514;BME280;39768;54.148;12.174;2023-07-16T08:16:20;100972.41;;;22.67;44.68
53514;BME280;39768;54.148;12.174;2023-07-16T08:20:21;100959.97;;;22.41;44.86
53514;BME280;39768;54.148;12.174;2023-07-16T08:24:25;100963.66;;;22.17;46.39
53514;BME280;39768;54.148;12.174;2023-07-16T08:28:26;100967.88;;;22.10;45.60
53514;BME280;39768;54.148;12.174;2023-07-16T08:32:31;100964.06;;;21.78;47.12
53514;BME280;39768;54.148;12.174;2023-07-16T08:36:37;100967.97;;;21.97;46.70
53514;BME280;39768;54.148;12.174;2023-07-16T08:40:41;100974.72;;;21.81;46.13
53514;BME280;39768;54.148;12.174;2023-07-16T08:44:43;100971.25;;;22.14;44.75
53514;BME280;39768;54.148;12.174;2023-07-16T08:48:45;100975.72;;;22.26;44.24
53514;BME280;39768;54.148;12.174;2023-07-16T08:52:46;100978.03;;;22.08;45.04
53514;BME280;39768;54.148;12.174;2023-07-16T08:56:48;100979.06;;;22.52;44.11
53514;BME280;39768;54.148;12.174;2023-07-16T09:00:51;100974.00;;;21.90;46.72
53514;BME280;39768;54.148;12.174;2023-07-16T09:04:53;100969.97;;;22.07;45.47
53514;BME280;39768;54.148;12.174;2023-07-16T09:08:57;100968.78;;;22.66;43.42
53514;BME280;39768;54.148;12.174;2023-07-16T09:12:59;100963.81;;;23.69;41.45
53514;BME280;39768;54.148;12.174;2023-07-16T09:17:02;100970.72;;;23.52;42.84
53514;BME280;39768;54.148;12.174;2023-07-16T09:21:04;100969.97;;;23.82;41.01
53514;BME280;39768;54.148;12.174;2023-07-16T09:25:07;100973.25;;;22.67;41.88
53514;BME280;39768;54.148;12.174;2023-07-16T09:29:12;100970.88;;;22.96;42.04
53514;BME280;39768;54.148;12.174;2023-07-16T09:33:20;100970.38;;;23.98;40.44
53514;BME280;39768;54.148;12.174;2023-07-16T09:37:22;100981.44;;;24.18;39.34
53514;BME280;39768;54.148;12.174;2023-07-16T09:41:24;100986.59;;;23.58;40.07
53514;BME280;39768;54.148;12.174;2023-07-16T09:45:27;100982.06;;;23.36;39.99
53514;BME280;39768;54.148;12.174;2023-07-16T09:49:28;100979.66;;;23.00;40.69
53514;BME280;39768;54.148;12.174;2023-07-16T09:53:32;100984.38;;;22.31;42.01
53514;BME280;39768;54.148;12.174;2023-07-16T09:57:36;100992.06;;;22.26;42.49
53514;BME280;39768;54.148;12.174;2023-07-16T10:01:39;100990.44;;;21.77;42.56
53514;BME280;39768;54.148;12.174;2023-07-16T10:05:41;100995.28;;;21.85;43.33
53514;BME280;39768;54.148;12.174;2023-07-16T10:09:52;100993.09;;;21.55;44.78
53514;BME280;39768;54.148;12.174;2023-07-16T10:13:53;100998.16;;;21.12;45.32
53514;BME280;39768;54.148;12.174;2023-07-16T10:17:56;100996.41;;;21.58;45.29
53514;BME280;39768;54.148;12.174;2023-07-16T10:27:32;100988.63;;;23.45;42.26
53514;BME280;39768;54.148;12.174;2023-07-16T10:31:34;100992.03;;;24.11;41.80
53514;BME280;39768;54.148;12.174;2023-07-16T10:35:41;100987.53;;;24.00;41.13
53514;BME280;39768;54.148;12.174;2023-07-16T10:39:49;100985.59;;;23.05;42.16
53514;BME280;39768;54.148;12.174;2023-07-16T10:43:51;100993.41;;;23.32;41.14
53514;BME280;39768;54.148;12.174;2023-07-16T10:47:56;100987.03;;;23.95;39.06
53514;BME280;39768;54.148;12.174;2023-07-16T10:52:00;100990.03;;;24.13;37.41
53514;BME280;39768;54.148;12.174;2023-07-16T10:56:02;100992.16;;;23.25;38.29
53514;BME280;39768;54.148;12.174;2023-07-16T11:00:04;101006.22;;;22.98;37.80
53514;BME280;39768;54.148;12.174;2023-07-16T11:04:09;101005.22;;;23.53;35.48
53514;BME280;39768;54.148;12.174;2023-07-16T11:08:21;101007.72;;;24.91;36.00
53514;BME280;39768;54.148;12.174;2023-07-16T11:12:23;101010.44;;;24.81;34.74
53514;BME280;39768;54.148;12.174;2023-07-16T11:16:26;101005.66;;;24.01;34.32
53514;BME280;39768;54.148;12.174;2023-07-16T11:20:29;101004.69;;;23.05;35.50
53514;BME280;39768;54.148;12.174;2023-07-16T11:28:40;101002.50;;;22.99;36.37
53514;BME280;39768;54.148;12.174;2023-07-16T11:32:46;101005.25;;;23.85;36.74
53514;BME280;39768;54.148;12.174;2023-07-16T11:36:49;101020.47;;;24.20;34.95
53514;BME280;39768;54.148;12.174;2023-07-16T11:40:52;101026.56;;;24.54;35.36
53514;BME280;39768;54.148;12.174;2023-07-16T11:44:53;101026.06;;;24.39;35.10
53514;BME280;39768;54.148;12.174;2023-07-16T11:48:56;101035.94;;;24.51;34.86
53514;BME280;39768;54.148;12.174;2023-07-16T11:53:01;101032.88;;;24.75;34.57
53514;BME280;39768;54.148;12.174;2023-07-16T11:57:03;101036.41;;;23.94;35.47
53514;BME280;39768;54.148;12.174;2023-07-16T12:01:05;101035.22;;;23.10;37.35
53514;BME280;39768;54.148;12.174;2023-07-16T12:05:06;101044.59;;;24.35;35.96
53514;BME280;39768;54.148;12.174;2023-07-16T12:09:12;101044.28;;;24.08;34.81
53514;BME280;39768;54.148;12.174;2023-07-16T12:13:13;101061.25;;;24.74;33.94
53514;BME280;39768;54.148;12.174;2023-07-16T12:17:15;101053.16;;;24.42;32.29
53514;BME280;39768;54.148;12.174;2023-07-16T12:21:17;101058.84;;;24.50;34.36
53514;BME280;39768;54.148;12.174;2023-07-16T12:25:19;101066.56;;;24.45;33.63
53514;BME280;39768;54.148;12.174;2023-07-16T12:29:21;101055.47;;;24.05;34.22
53514;BME280;39768;54.148;12.174;2023-07-16T12:33:23;101056.41;;;24.36;34.39
53514;BME280;39768;54.148;12.174;2023-07-16T12:37:25;101074.75;;;24.66;33.14
53514;BME280;39768;54.148;12.174;2023-07-16T12:41:26;101069.50;;;24.83;31.80
53514;BME280;39768;54.148;12.174;2023-07-16T12:45:28;101076.22;;;25.00;30.49
53514;BME280;39768;54.148;12.174;2023-07-16T12:49:29;101083.19;;;24.83;31.08
53514;BME280;39768;54.148;12.174;2023-07-16T12:53:32;101074.97;;;24.53;32.23
53514;BME280;39768;54.148;12.174;2023-07-16T12:57:37;101088.88;;;24.08;31.48
53514;BME280;39768;54.148;12.174;2023-07-16T13:02:32;101086.19;;;24.50;31.17
53514;BME280;39768;54.148;12.174;2023-07-16T13:06:34;101095.22;;;24.30;31.04
53514;BME280;39768;54.148;12.174;2023-07-16T13:10:36;101110.38;;;24.55;31.23
53514;BME280;39768;54.148;12.174;2023-07-16T13:14:48;101116.47;;;24.79;30.86
53514;BME280;39768;54.148;12.174;2023-07-16T13:19:14;101108.47;;;24.13;31.56
53514;BME280;39768;54.148;12.174;2023-07-16T13:23:16;101120.78;;;25.02;31.83
53514;BME280;39768;54.148;12.174;2023-07-16T13:27:22;101120.53;;;24.64;30.31
53514;BME280;39768;54.148;12.174;2023-07-16T13:31:24;101114.44;;;24.19;31.48
53514;BME280;39768;54.148;12.174;2023-07-16T13:35:25;101127.41;;;24.37;31.58
53514;BME280;39768;54.148;12.174;2023-07-16T13:39:27;101144.97;;;24.56;31.22
53514;BME280;39768;54.148;12.174;2023-07-16T13:43:28;101142.81;;;24.38;31.52
53514;BME280;39768;54.148;12.174;2023-07-16T13:47:30;101142.19;;;25.28;31.22
53514;BME280;39768;54.148;12.174;2023-07-16T13:51:31;101143.09;;;24.77;31.65
53514;BME280;39768;54.148;12.174;2023-07-16T13:55:33;101151.31;;;24.24;32.00
53514;BME280;39768;54.148;12.174;2023-07-16T13:59:35;101149.19;;;23.96;32.67
53514;BME280;39768;54.148;12.174;2023-07-16T14:03:36;101157.13;;;23.99;32.41
53514;BME280;39768;54.148;12.174;2023-07-16T14:07:38;101152.81;;;23.85;32.73
53514;BME280;39768;54.148;12.174;2023-07-16T14:11:40;101156.44;;;24.18;32.15
53514;BME280;39768;54.148;12.174;2023-07-16T14:15:42;101151.25;;;23.60;33.46
53514;BME280;39768;54.148;12.174;2023-07-16T14:19:44;101162.44;;;24.43;32.95
53514;BME280;39768;54.148;12.174;2023-07-16T14:23:45;101157.25;;;24.08;32.55
53514;BME280;39768;54.148;12.174;2023-07-16T14:27:47;101157.56;;;24.15;32.85
53514;BME280;39768;54.148;12.174;2023-07-16T14:31:49;101146.00;;;24.11;32.26
53514;BME280;39768;54.148;12.174;2023-07-16T14:35:50;101154.94;;;23.93;32.92
53514;BME280;39768;54.148;12.174;2023-07-16T14:39:52;101161.31;;;24.46;32.11
53514;BME280;39768;54.148;12.174;2023-07-16T14:43:53;101156.50;;;24.06;33.29
53514;BME280;39768;54.148;12.174;2023-07-16T14:47:58;101154.56;;;23.75;33.13
53514;BME280;39768;54.148;12.174;2023-07-16T14:52:00;101152.38;;;23.47;33.65
53514;BME280;39768;54.148;12.174;2023-07-16T14:56:01;101156.69;;;23.83;33.74
53514;BME280;39768;54.148;12.174;2023-07-16T15:00:05;101151.97;;;24.49;32.28
53514;BME280;39768;54.148;12.174;2023-07-16T15:04:08;101157.66;;;23.82;32.82
53514;BME280;39768;54.148;12.174;2023-07-16T15:08:10;101161.84;;;23.31;33.86
53514;BME280;39768;54.148;12.174;2023-07-16T15:12:12;101157.69;;;23.70;34.25
53514;BME280;39768;54.148;12.174;2023-07-16T15:16:13;101164.84;;;24.26;32.28
53514;BME280;39768;54.148;12.174;2023-07-16T15:20:15;101167.81;;;24.02;33.18
53514;BME280;39768;54.148;12.174;2023-07-16T15:24:17;101161.81;;;24.40;32.84
53514;BME280;39768;54.148;12.174;2023-07-16T15:28:18;101158.25;;;24.60;32.15
53514;BME280;39768;54.148;12.174;2023-07-16T15:32:20;101148.53;;;24.35;32.71
53514;BME280;39768;54.148;12.174;2023-07-16T15:36:22;101169.38;;;24.48;32.44
53514;BME280;39768;54.148;12.174;2023-07-16T15:40:24;101174.94;;;24.78;30.47
53514;BME280;39768;54.148;12.174;2023-07-16T15:44:26;101176.59;;;24.49;31.88
53514;BME280;39768;54.148;12.174;2023-07-16T15:48:28;101168.66;;;25.08;32.46
53514;BME280;39768;54.148;12.174;2023-07-16T15:52:29;101174.16;;;25.17;31.66
53514;BME280;39768;54.148;12.174;2023-07-16T15:56:34;101167.81;;;24.34;32.28
53514;BME280;39768;54.148;12.174;2023-07-16T16:00:36;101179.81;;;23.56;33.75
53514;BME280;39768;54.148;12.174;2023-07-16T16:04:38;101173.66;;;23.97;32.96
53514;BME280;39768;54.148;12.174;2023-07-16T16:08:39;101180.00;;;24.83;32.68
53514;BME280;39768;54.148;12.174;2023-07-16T16:12:41;101168.25;;;25.12;31.64
53514;BME280;39768;54.148;12.174;2023-07-16T16:16:43;101186.31;;;24.83;31.34
53514;BME280;39768;54.148;12.174;2023-07-16T16:21:01;101180.22;;;24.49;31.39
53514;BME280;39768;54.148;12.174;2023-07-16T16:25:04;101180.50;;;24.24;31.92
53514;BME280;39768;54.148;12.174;2023-07-16T16:29:07;101184.44;;;24.42;31.67
53514;BME280;39768;54.148;12.174;2023-07-16T16:33:08;101197.06;;;25.37;30.00
53514;BME280;39768;54.148;12.174;2023-07-16T16:37:10;101199.25;;;25.83;29.31
53514;BME280;39768;54.148;12.174;2023-07-16T16:41:12;101213.66;;;26.16;29.94
53514;BME280;39768;54.148;12.174;2023-07-16T16:45:14;101209.75;;;26.47;29.83
53514;BME280;39768;54.148;12.174;2023-07-16T16:49:16;101209.03;;;26.84;28.58
53514;BME280;39768;54.148;12.174;2023-07-16T16:53:17;101214.94;;;26.22;29.71
53514;BME280;39768;54.148;12.174;2023-07-16T16:57:19;101215.13;;;26.68;28.37
53514;BME280;39768;54.148;12.174;2023-07-16T17:01:21;101212.03;;;27.00;28.46
53514;BME280;39768;54.148;12.174;2023-07-16T17:05:23;101225.53;;;27.68;28.62
53514;BME280;39768;54.148;12.174;2023-07-16T17:09:26;101231.25;;;27.56;27.77
53514;BME280;39768;54.148;12.174;2023-07-16T17:13:29;101229.19;;;27.12;28.03
53514;BME280;39768;54.148;12.174;2023-07-16T17:17:30;101224.19;;;26.30;29.48
53514;BME280;39768;54.148;12.174;2023-07-16T17:21:32;101214.34;;;24.23;32.33
53514;BME280;39768;54.148;12.174;2023-07-16T17:25:33;101224.44;;;25.07;31.80
53514;BME280;39768;54.148;12.174;2023-07-16T17:29:35;101238.13;;;25.07;32.01
53514;BME280;39768;54.148;12.174;2023-07-16T17:33:36;101236.56;;;25.14;32.41
53514;BME280;39768;54.148;12.174;2023-07-16T17:37:38;101239.53;;;24.49;33.07
53514;BME280;39768;54.148;12.174;2023-07-16T17:41:40;101243.25;;;24.68;33.29
53514;BME280;39768;54.148;12.174;2023-07-16T17:45:42;101231.94;;;23.98;33.89
53514;BME280;39768;54.148;12.174;2023-07-16T17:49:44;101236.88;;;23.15;35.59
53514;BME280;39768;54.148;12.174;2023-07-16T17:53:47;101232.88;;;23.07;34.97
53514;BME280;39768;54.148;12.174;2023-07-16T17:57:48;101240.41;;;23.28;35.59
53514;BME280;39768;54.148;12.174;2023-07-16T18:01:50;101241.94;;;23.08;36.30
53514;BME280;39768;54.148;12.174;2023-07-16T18:05:53;101241.06;;;22.61;36.69
53514;BME280;39768;54.148;12.174;2023-07-16T18:09:54;101234.88;;;22.12;37.38
53514;BME280;39768;54.148;12.174;2023-07-16T18:13:56;101247.03;;;21.95;38.77
53514;BME280;39768;54.148;12.174;2023-07-16T18:17:57;101242.34;;;21.72;38.07
53514;BME280;39768;54.148;12.174;2023-07-16T18:21:59;101241.31;;;21.23;38.85
53514;BME280;39768;54.148;12.174;2023-07-16T18:26:22;101250.00;;;21.03;40.25
53514;BME280;39768;54.148;12.174;2023-07-16T18:30:25;101256.81;;;20.71;39.21
53514;BME280;39768;54.148;12.174;2023-07-16T18:34:27;101252.78;;;20.63;39.61
53514;BME280;39768;54.148;12.174;2023-07-16T18:38:28;101259.69;;;20.82;39.77
53514;BME280;39768;54.148;12.174;2023-07-16T18:42:30;101256.47;;;20.62;39.76
53514;BME280;39768;54.148;12.174;2023-07-16T18:46:32;101261.38;;;20.43;40.72
53514;BME280;39768;54.148;12.174;2023-07-16T18:50:35;101263.25;;;19.87;41.76
53514;BME280;39768;54.148;12.174;2023-07-16T18:54:37;101267.44;;;19.65;42.99
53514;BME280;39768;54.148;12.174;2023-07-16T18:58:39;101265.63;;;19.51;43.79
53514;BME280;39768;54.148;12.174;2023-07-16T19:02:40;101267.75;;;19.46;43.74
53514;BME280;39768;54.148;12.174;2023-07-16T19:06:42;101276.88;;;19.45;44.46
53514;BME280;39768;54.148;12.174;2023-07-16T19:10:44;101268.81;;;19.43;44.35
53514;BME280;39768;54.148;12.174;2023-07-16T19:14:46;101274.72;;;19.36;44.75
53514;BME280;39768;54.148;12.174;2023-07-16T19:18:47;101279.59;;;19.31;45.18
53514;BME280;39768;54.148;12.174;2023-07-16T19:22:49;101279.13;;;19.08;46.20
53514;BME280;39768;54.148;12.174;2023-07-16T19:26:50;101295.97;;;18.99;46.70
53514;BME280;39768;54.148;12.174;2023-07-16T19:30:53;101290.59;;;18.83;47.33
53514;BME280;39768;54.148;12.174;2023-07-16T19:34:54;101295.72;;;18.74;47.55
53514;BME280;39768;54.148;12.174;2023-07-16T19:38:56;101297.56;;;18.73;48.19
53514;BME280;39768;54.148;12.174;2023-07-16T19:42:58;101304.28;;;18.66;48.51
53514;BME280;39768;54.148;12.174;2023-07-16T19:46:59;101307.16;;;18.63;50.93
53514;BME280;39768;54.148;12.174;2023-07-16T19:51:01;101303.09;;;18.56;50.52
53514;BME280;39768;54.148;12.174;2023-07-16T19:55:05;101303.34;;;18.51;50.45
53514;BME280;39768;54.148;12.174;2023-07-16T19:59:07;101298.25;;;18.45;50.69
53514;BME280;39768;54.148;12.174;2023-07-16T20:03:08;101312.09;;;18.25;51.53
53514;BME280;39768;54.148;12.174;2023-07-16T20:07:12;101319.81;;;19.67;49.27
53514;BME280;39768;54.148;12.174;2023-07-16T20:11:14;101322.25;;;19.85;47.85
53514;BME280;39768;54.148;12.174;2023-07-16T20:15:16;101320.41;;;19.86;47.42
53514;BME280;39768;54.148;12.174;2023-07-16T20:19:18;101317.09;;;19.81;47.60
53514;BME280;39768;54.148;12.174;2023-07-16T20:23:20;101320.13;;;19.76;50.42
53514;BME280;39768;54.148;12.174;2023-07-16T20:27:21;101316.03;;;19.69;49.13
53514;BME280;39768;54.148;12.174;2023-07-16T20:31:24;101308.06;;;19.66;49.26
53514;BME280;39768;54.148;12.174;2023-07-16T20:35:26;101306.72;;;19.45;49.13
53514;BME280;39768;54.148;12.174;2023-07-16T20:39:28;101299.72;;;18.67;50.96
53514;BME280;39768;54.148;12.174;2023-07-16T20:43:30;101308.56;;;19.00;51.03
53514;BME280;39768;54.148;12.174;2023-07-16T20:47:32;101306.38;;;18.91;52.89
53514;BME280;39768;54.148;12.174;2023-07-16T20:51:33;101300.97;;;18.91;53.74
53514;BME280;39768;54.148;12.174;2023-07-16T20:55:35;101309.88;;;18.93;51.84
53514;BME280;39768;54.148;12.174;2023-07-16T20:59:37;101304.38;;;18.65;52.70
53514;BME280;39768;54.148;12.174;2023-07-16T21:03:39;101310.75;;;18.48;54.77
53514;BME280;39768;54.148;12.174;2023-07-16T21:07:41;101322.38;;;18.50;52.62
53514;BME280;39768;54.148;12.174;2023-07-16T21:11:46;101314.19;;;18.51;52.70